This is the latest recevied weather packets stored in our database for station/object KE0PRS. If no packets are shown the sender has not sent any weather packets the latest 10 day(s).
| Time | Temp. | Humidity | Pressure | Rain* | Wind** | Luminosity | Snow |
|---|---|---|---|---|---|---|---|
| 1787688004 | 25.56° C | 66% | 1017.6 hPa | 0 mm | - | 304 W/m² | - |
| 1787687699 | 25.56° C | 68% | 1017.6 hPa | 0 mm | - | 295 W/m² | - |
| 1787687395 | 25° C | 68% | 1017.3 hPa | 0 mm | - | 255 W/m² | - |
| 1787687090 | 25° C | 68% | 1017 hPa | 0 mm | - | 227 W/m² | - |
| 1787686786 | 25° C | 70% | 1016.9 hPa | 0 mm | - | 243 W/m² | - |
| 1787686481 | 24.44° C | 72% | 1017.2 hPa | 0 mm | - | 338 W/m² | - |
| 1787686177 | 24.44° C | 74% | 1017.3 hPa | 0 mm | - | 503 W/m² | - |
| 1787685873 | 23.89° C | 76% | 1017.4 hPa | 0 mm | - | 398 W/m² | - |
| 1787685572 | 23.33° C | 76% | 1017.2 hPa | 0 mm | - | 322 W/m² | - |
| 1787685267 | 23.33° C | 79% | 1017.2 hPa | 0 mm | - | 273 W/m² | - |
| 1787684961 | 23.33° C | 82% | 1017.5 hPa | 0 mm | - | 247 W/m² | - |
| 1787684658 | 23.33° C | 84% | 1017.7 hPa | 0 mm | - | 226 W/m² | - |
| 1787684356 | 22.78° C | 84% | 1017.7 hPa | 0 mm | - | 196 W/m² | - |
| 1787684052 | 22.78° C | 83% | 1018.1 hPa | 0 mm | - | 168 W/m² | - |
| 1787683751 | 22.22° C | 86% | 1018.2 hPa | 0 mm | - | 130 W/m² | - |
| 1787683447 | 22.22° C | 86% | 1018.5 hPa | 0 mm | - | 96 W/m² | - |
| 1787683142 | 21.67° C | 84% | 1018.5 hPa | 1.78 mm | - | 76 W/m² | - |
| 1787682839 | 21.67° C | 87% | 1019 hPa | 1.78 mm | - | 58 W/m² | - |
| 1787682535 | 22.22° C | 92% | 1019 hPa | 0 mm | - | 39 W/m² | - |
| 1787682230 | 22.22° C | 93% | 1019 hPa | 0 mm | - | 31 W/m² | - |
| 1787681926 | 21.67° C | 93% | 1019.1 hPa | 1.27 mm | - | 26 W/m² | - |
| 1787681625 | 21.67° C | 93% | 1019.6 hPa | 3.05 mm | - | 23 W/m² | - |
| 1787681320 | 21.11° C | 94% | 1019.9 hPa | 1.78 mm | - | 21 W/m² | - |
| 1787681016 | 21.11° C | 94% | 1020.2 hPa | 1.27 mm | - | 19 W/m² | - |
| 1787680716 | 21.11° C | 95% | 1020.8 hPa | 1.27 mm | - | 17 W/m² | - |
* Rain latest hour (hover to see other rain measurements)
** Current wind speed in m/s (hover to see current wind gust speed)